Rock Falls, IL

3:08 PM CST on February 25, 2017 (GMT -0600)
Whiteside County-Bittorf

Weather History for KSQI - January, 2014

Change the Weather History Date:

Sunday, January 5, 2014

  Actual Average Record
Temperature  
Mean Temperature 6 °F -  
Max Temperature 19 °F 29 °F 48 °F (1998)
Min Temperature -7 °F 15 °F -25 °F (1999)
Degree Days  
Heating Degree Days 59    
Moisture  
Dew Point 0 °F    
Average Humidity 66    
Maximum Humidity 86    
Minimum Humidity 55    
Precipitation  
Precipitation 0.03 in - - ()
Sea Level Pressure  
Sea Level Pressure 30.09 in    
Wind  
Wind Speed 16 mph (North)    
Max Wind Speed 25 mph    
Max Gust Speed 34 mph    
Visibility 7 miles    
Events      
Averages and records for this station are not official NWS values.
T = Trace of Precipitation, MM = Missing Value Source: NWS Daily Summary

Daily Weather History Graph

Daily Weather History Graph

Search for Another Location

Airport or City:

Trip Planner

Search our weather history database for the weather conditions in past years. The results will help you decide how hot, cold, wet, or windy it might be!

Date:

Astronomy

Jan. 05, 2014 Rise Set
Actual Time 7:26 AM CST 4:42 PM CST
Civil Twilight 6:54 AM CST 5:13 PM CST
Nautical Twilight 6:20 AM CST 5:48 PM CST
Astronomical Twilight 5:46 AM CST 6:22 PM CST
Moon 10:03 AM CST (1/5) 10:15 PM CST (1/5)
Length of Visible Light 10h 19m
Length of Day
9h 16m
Waxing Crescent, 25% of the Moon is Illuminated
Jan 5
Waxing Crescent
Jan 7
First Quarter
Jan 15
Full
Jan 23
Last Quarter
Jan 30
New

Hourly Weather History & Observations

Time (CST) Temp. Windchill Dew Point Humidity Pressure Visibility Wind Dir Wind Speed Gust Speed Precip Events Conditions
12:15 AM 19.4 °F 5.0 °F 15.8 °F 86% 30.02 in 1.8 mi NNE 16.1 mph 24.2 mph N/A   Overcast
12:35 AM 19.4 °F 5.0 °F 15.8 °F 86% 30.02 in 1.8 mi NNE 16.1 mph 24.2 mph N/A   Overcast
12:55 AM 19.4 °F 6.0 °F 14.0 °F 80% 30.03 in 2.5 mi NNE 13.8 mph 19.6 mph N/A   Overcast
1:15 AM 19.4 °F 6.6 °F 14.0 °F 80% 30.03 in 2.0 mi NNE 12.7 mph 18.4 mph N/A   Overcast
1:35 AM 17.6 °F 4.3 °F 14.0 °F 86% 30.05 in 1.5 mi NNE 12.7 mph - N/A   Overcast
1:55 AM 17.6 °F 5.0 °F 14.0 °F 86% 30.05 in 1.5 mi NNE 11.5 mph 18.4 mph N/A   Overcast
2:15 AM 17.6 °F 5.0 °F 12.2 °F 79% 30.06 in 1.8 mi NNE 11.5 mph 20.7 mph N/A   Overcast
2:35 AM 17.6 °F 4.3 °F 12.2 °F 79% 30.06 in 2.0 mi NNE 12.7 mph 16.1 mph N/A   Overcast
2:55 AM 17.6 °F 5.7 °F 12.2 °F 79% 30.07 in 3.0 mi NNE 10.4 mph 16.1 mph N/A   Overcast
3:15 AM 17.6 °F 4.3 °F 12.2 °F 79% 30.05 in 2.5 mi NNE 12.7 mph 19.6 mph N/A   Overcast
3:35 AM 15.8 °F 2.7 °F 10.4 °F 79% 30.05 in 2.0 mi NNE 11.5 mph - N/A   Overcast
3:55 AM 15.8 °F 2.1 °F 10.4 °F 79% 30.06 in 1.8 mi NNE 12.7 mph 25.3 mph N/A   Overcast
4:15 AM 15.8 °F 2.1 °F 10.4 °F 79% 30.05 in 3.0 mi NNE 12.7 mph 20.7 mph N/A   Overcast
4:35 AM 15.8 °F 2.1 °F 10.4 °F 79% 30.05 in 4.0 mi NNE 12.7 mph 16.1 mph N/A   Overcast
4:55 AM 15.8 °F 2.1 °F 10.4 °F 79% 30.05 in 4.0 mi NNE 12.7 mph 16.1 mph N/A   Scattered Clouds
5:15 AM 15.8 °F 0.9 °F 8.6 °F 73% 30.05 in 10.0 mi NNE 15.0 mph 20.7 mph N/A   Mostly Cloudy
5:35 AM 15.8 °F -0.2 °F 6.8 °F 68% 30.05 in 10.0 mi NNE 17.3 mph 20.7 mph N/A   Scattered Clouds
5:55 AM 15.8 °F 1.4 °F 6.8 °F 68% 30.06 in 10.0 mi NNE 13.8 mph 25.3 mph N/A   Scattered Clouds
6:15 AM 15.8 °F 1.4 °F 6.8 °F 68% 30.07 in 10.0 mi NNE 13.8 mph 23.0 mph N/A   Mostly Cloudy
6:35 AM 15.8 °F 3.4 °F 6.8 °F 68% 30.07 in 10.0 mi NNE 10.4 mph - N/A   Overcast
6:55 AM 14.0 °F -0.8 °F 5.0 °F 67% 30.08 in 10.0 mi North 13.8 mph 19.6 mph N/A   Overcast
7:15 AM 14.0 °F -2.0 °F 5.0 °F 67% 30.06 in 10.0 mi NNE 16.1 mph 20.7 mph N/A   Overcast
7:35 AM 14.0 °F -0.8 °F 5.0 °F 67% 30.06 in 10.0 mi NNE 13.8 mph 23.0 mph N/A   Overcast
7:55 AM 14.0 °F -0.8 °F 5.0 °F 67% 30.07 in 10.0 mi NNE 13.8 mph 19.6 mph N/A   Overcast
8:15 AM 12.2 °F -5.8 °F 3.2 °F 67% 30.08 in 10.0 mi North 19.6 mph 23.0 mph N/A   Overcast
8:35 AM 12.2 °F -5.3 °F 3.2 °F 67% 30.09 in 10.0 mi North 18.4 mph 27.6 mph N/A   Mostly Cloudy
8:55 AM 12.2 °F -4.8 °F 3.2 °F 67% 30.08 in 10.0 mi NNE 17.3 mph 25.3 mph N/A   Mostly Cloudy
9:15 AM 12.2 °F -5.8 °F 3.2 °F 67% 30.10 in 8.0 mi North 19.6 mph 26.5 mph N/A   Mostly Cloudy
9:35 AM 12.2 °F -5.8 °F 1.4 °F 62% 30.11 in 10.0 mi North 19.6 mph 25.3 mph N/A   Mostly Cloudy
9:55 AM 12.2 °F -4.3 °F 1.4 °F 62% 30.10 in 10.0 mi North 16.1 mph 27.6 mph N/A   Partly Cloudy
10:15 AM 12.2 °F -4.8 °F 1.4 °F 62% 30.08 in 10.0 mi North 17.3 mph 21.9 mph N/A   Mostly Cloudy
10:35 AM 12.2 °F -6.3 °F 1.4 °F 62% 30.08 in 7.0 mi North 20.7 mph 27.6 mph N/A   Overcast
10:55 AM 10.4 °F -7.7 °F 1.4 °F 67% 30.08 in 5.0 mi North 18.4 mph 28.8 mph N/A   Mostly Cloudy
11:15 AM 10.4 °F -8.2 °F 1.4 °F 67% 30.07 in 10.0 mi North 19.6 mph 26.5 mph N/A   Mostly Cloudy
11:35 AM 10.4 °F -9.5 °F 1.4 °F 67% 30.06 in 5.0 mi North 23.0 mph 27.6 mph N/A   Mostly Cloudy
11:55 AM 10.4 °F -7.7 °F 1.4 °F 67% 30.05 in 10.0 mi North 18.4 mph 25.3 mph N/A   Overcast
12:15 PM 10.4 °F -7.7 °F 1.4 °F 67% 30.03 in 7.0 mi North 18.4 mph 26.5 mph N/A   Overcast
12:35 PM 10.4 °F -6.6 °F -0.4 °F 62% 30.06 in 2.5 mi North 16.1 mph 23.0 mph N/A   Overcast
12:55 PM 10.4 °F -7.2 °F 1.4 °F 67% 30.05 in 1.0 mi North 17.3 mph 23.0 mph N/A   Overcast
1:15 PM 10.4 °F -6.6 °F 3.2 °F 73% 30.05 in 1.2 mi North 16.1 mph 23.0 mph N/A   Overcast
1:35 PM 10.4 °F -7.2 °F -0.4 °F 62% 30.05 in 8.0 mi North 17.3 mph 28.8 mph N/A   Overcast
1:55 PM 10.4 °F -8.6 °F -2.2 °F 57% 30.04 in 8.0 mi North 20.7 mph 27.6 mph N/A   Overcast
2:15 PM 10.4 °F -8.2 °F -2.2 °F 57% 30.04 in 10.0 mi North 19.6 mph 27.6 mph N/A   Overcast
2:35 PM 8.6 °F -10.0 °F -2.2 °F 62% 30.04 in 5.0 mi North 18.4 mph 31.1 mph N/A   Mostly Cloudy
2:55 PM 8.6 °F -10.0 °F -2.2 °F 62% 30.05 in 5.0 mi North 18.4 mph 28.8 mph N/A   Overcast
3:15 PM 8.6 °F -12.7 °F -2.2 °F 62% 30.06 in 5.0 mi North 25.3 mph 31.1 mph N/A   Overcast
3:35 PM 8.6 °F -12.7 °F -2.2 °F 62% 30.07 in 5.0 mi North 25.3 mph 31.1 mph N/A   Partly Cloudy
3:55 PM 8.6 °F -11.4 °F -2.2 °F 62% 30.08 in 7.0 mi NNW 21.9 mph 29.9 mph N/A   Partly Cloudy
4:15 PM 6.8 °F -13.4 °F -4.0 °F 61% 30.09 in 5.0 mi NNW 20.7 mph 32.2 mph N/A   Mostly Cloudy
4:35 PM 6.8 °F -14.7 °F -4.0 °F 61% 30.09 in 3.0 mi NNW 24.2 mph 34.5 mph N/A   Scattered Clouds
4:55 PM 6.8 °F -14.3 °F -5.8 °F 56% 30.09 in 7.0 mi NNW 23.0 mph 27.6 mph N/A   Scattered Clouds
5:15 PM 6.8 °F -15.1 °F -5.8 °F 56% 30.11 in 7.0 mi NNW 25.3 mph 31.1 mph N/A   Overcast
5:35 PM 5.0 °F -16.2 °F -5.8 °F 61% 30.12 in 7.0 mi NNW 21.9 mph 28.8 mph N/A   Scattered Clouds
5:55 PM 3.2 °F -18.1 °F -7.6 °F 61% 30.12 in 10.0 mi NNW 20.7 mph 29.9 mph N/A   Clear
6:15 PM 3.2 °F -15.3 °F -9.4 °F 56% 30.12 in 10.0 mi NNW 15.0 mph 24.2 mph N/A   Clear
6:35 PM 3.2 °F -15.3 °F -9.4 °F 56% 30.13 in 10.0 mi NW 15.0 mph 25.3 mph N/A   Clear
6:55 PM 3.2 °F -17.6 °F -9.4 °F 56% 30.14 in 10.0 mi NW 19.6 mph 25.3 mph N/A   Clear
7:15 PM 1.4 °F -19.9 °F -11.2 °F 56% 30.15 in 10.0 mi NW 19.6 mph 26.5 mph N/A   Clear
7:35 PM 1.4 °F -20.5 °F -11.2 °F 56% 30.15 in 10.0 mi NW 20.7 mph 27.6 mph N/A   Clear
7:55 PM 1.4 °F -19.4 °F -11.2 °F 56% 30.15 in 10.0 mi NW 18.4 mph - N/A   Clear
8:15 PM -0.4 °F -21.7 °F - N/A% 30.16 in 10.0 mi NW 18.4 mph 24.2 mph N/A   Clear
8:35 PM -0.4 °F -22.3 °F -13.0 °F 55% 30.16 in 10.0 mi NW 19.6 mph 27.6 mph N/A   Clear
8:55 PM -0.4 °F -20.5 °F -13.0 °F 55% 30.16 in 10.0 mi NW 16.1 mph 21.9 mph N/A   Clear
9:15 PM -2.2 °F -23.5 °F -13.0 °F 60% 30.16 in 10.0 mi NW 17.3 mph 23.0 mph N/A   Clear
9:35 PM -2.2 °F -26.2 °F -13.0 °F 60% 30.16 in 7.0 mi NW 23.0 mph 28.8 mph N/A   Clear
9:55 PM -2.2 °F -26.7 °F -13.0 °F 60% 30.16 in 7.0 mi NW 24.2 mph 32.2 mph N/A   Clear
10:15 PM -4.0 °F -27.6 °F -14.8 °F 60% 30.16 in 10.0 mi WNW 20.7 mph 25.3 mph N/A   Clear
10:35 PM -5.8 °F -30.5 °F -14.8 °F 65% 30.17 in 7.0 mi WNW 21.9 mph 31.1 mph N/A   Clear
10:55 PM -5.8 °F -28.8 °F -16.6 °F 60% 30.17 in 9.0 mi WNW 18.4 mph 26.5 mph N/A   Clear
11:15 PM -5.8 °F -29.9 °F -16.6 °F 60% 30.17 in 10.0 mi WNW 20.7 mph 31.1 mph N/A   Clear
11:35 PM -7.6 °F -31.1 °F -18.4 °F 59% 30.17 in 10.0 mi WNW 18.4 mph 25.3 mph N/A   Clear
11:55 PM -7.6 °F -32.9 °F -16.6 °F 65% 30.17 in 8.0 mi WNW 21.9 mph 31.1 mph N/A   Clear